Time;durP1;ratioP1;P1;durP2;ratioP2;P2;SDS_P1;SDS_P2;PMS_P1;PMS_P2;Temp;Humidity;BMP_temperature;BMP_pressure;BME280_temperature;BME280_humidity;BME280_pressure;Samples;Min_cycle;Max_cycle;Signal;HPM_P1;HPM_P2
2022/01/25 00:25:09;;;;;;;151.45;40.22;;;;;;;-1.95;100.00;103409.44;5263602;28;20059;-74
2022/01/25 00:27:47;;;;;;;160.43;45.70;;;;;;;-1.94;100.00;103411.19;5264026;28;20065;-74
2022/01/25 00:33:05;;;;;;;164.10;42.83;;;;;;;-1.96;100.00;103414.72;5252533;28;20016;-74
2022/01/25 00:35:36;;;;;;;167.93;41.85;;;;;;;-1.99;100.00;103405.13;5264024;28;20032;-74
2022/01/25 00:38:06;;;;;;;160.07;40.55;;;;;;;-1.99;100.00;103409.50;5264475;28;20027;-74
2022/01/25 00:40:37;;;;;;;141.02;40.30;;;;;;;-2.03;100.00;103413.06;5264057;28;20073;-74
2022/01/25 00:43:07;;;;;;;150.68;41.25;;;;;;;-2.05;100.00;103413.09;5264055;28;20075;-74
2022/01/25 00:45:38;;;;;;;144.68;40.80;;;;;;;-2.07;100.00;103409.59;5263009;28;20020;-74
2022/01/25 00:48:18;;;;;;;147.00;43.47;;;;;;;-2.09;100.00;103411.41;5263654;28;20384;-73
2022/01/25 00:50:48;;;;;;;149.70;40.38;;;;;;;-2.11;100.00;103414.06;5250541;28;20035;-73
2022/01/25 00:56:08;;;;;;;143.70;41.10;;;;;;;-2.10;100.00;103420.19;5262915;28;20024;-73
2022/01/25 00:58:38;;;;;;;151.45;41.88;;;;;;;-2.13;100.00;103412.34;5263231;28;20024;-73
2022/01/25 01:01:09;;;;;;;155.52;44.33;;;;;;;-2.15;100.00;103419.38;5263449;28;20480;-73
2022/01/25 01:03:39;;;;;;;167.10;42.88;;;;;;;-2.18;100.00;103416.78;5263704;28;20020;-73
2022/01/25 01:06:10;;;;;;;148.82;43.13;;;;;;;-2.21;100.00;103420.34;5263323;28;20434;-74
2022/01/25 01:08:41;;;;;;;158.38;43.38;;;;;;;-2.22;100.00;103422.97;5263106;28;20028;-74
2022/01/25 01:11:19;;;;;;;142.77;43.40;;;;;;;-2.24;100.00;103404.59;5263079;28;20024;-75
2022/01/25 01:14:13;;;;;;;140.43;39.05;;;;;;;-2.28;100.00;103400.25;5263510;28;20043;-73
2022/01/25 01:41:51;;;;;;;145.55;38.45;;;;;;;-2.49;100.00;103419.84;5263214;28;20028;-73
2022/01/25 01:44:24;;;;;;;149.80;39.28;;;;;;;-2.50;100.00;103414.59;5250268;28;20483;-74
2022/01/25 01:47:03;;;;;;;157.70;41.70;;;;;;;-2.52;100.00;103414.59;5263554;28;20027;-74
2022/01/25 01:49:40;;;;;;;170.90;44.92;;;;;;;-2.53;100.00;103426.00;5263152;28;20028;-73
2022/01/25 01:52:12;;;;;;;171.18;44.42;;;;;;;-2.50;100.00;103428.63;5262984;28;20016;-73
2022/01/25 01:54:43;;;;;;;188.98;47.03;;;;;;;-2.45;100.00;103426.78;5262428;28;20047;-74
2022/01/25 01:57:13;;;;;;;183.38;46.45;;;;;;;-2.44;100.00;103418.00;5263205;28;20024;-73
2022/01/25 01:59:44;;;;;;;170.05;44.28;;;;;;;-2.42;100.00;103415.34;5266960;28;20020;-73
2022/01/25 02:02:15;;;;;;;182.10;47.50;;;;;;;-2.40;100.00;103410.97;5267486;28;20557;-73
2022/01/25 02:04:45;;;;;;;203.20;49.38;;;;;;;-2.28;100.00;103421.31;5266943;28;20028;-73
2022/01/25 02:07:16;;;;;;;202.70;48.72;;;;;;;-2.15;100.00;103408.88;5267545;28;20054;-74
2022/01/25 02:09:46;;;;;;;203.18;50.30;;;;;;;-2.03;100.00;103416.56;5267289;28;20020;-74
2022/01/25 02:12:37;;;;;;;207.25;51.92;;;;;;;-1.90;100.00;103418.13;5251618;28;20028;-74
2022/01/25 02:15:11;;;;;;;227.18;51.28;;;;;;;-1.83;100.00;103411.00;5266403;28;20098;-74
2022/01/25 02:23:21;;;;;;;219.95;51.28;;;;;;;-1.50;100.00;103427.16;5257643;28;20020;-74
2022/01/25 02:25:56;;;;;;;206.43;52.15;;;;;;;-1.32;100.00;103416.31;5265967;28;20032;-73
2022/01/25 02:28:31;;;;;;;198.57;55.00;;;;;;;-1.11;100.00;103412.41;5266768;28;20028;-74
2022/01/25 02:31:03;;;;;;;201.25;52.10;;;;;;;-0.92;100.00;103413.81;5266168;28;20084;-73
2022/01/25 02:33:34;;;;;;;212.30;53.97;;;;;;;-0.72;100.00;103407.28;5266760;28;20350;-74
2022/01/25 02:36:08;;;;;;;196.68;53.20;;;;;;;-0.57;100.00;103409.59;5265765;28;20028;-74
2022/01/25 02:38:39;;;;;;;216.73;54.55;;;;;;;-0.46;100.00;103406.72;5266316;28;20020;-73
2022/01/25 02:41:10;;;;;;;198.35;52.67;;;;;;;-0.37;100.00;103411.81;5266523;28;20028;-73
2022/01/25 02:43:48;;;;;;;185.52;50.50;;;;;;;-0.07;100.00;103415.53;5266472;28;20155;-74
2022/01/25 02:48:29;;;;;;;193.48;53.03;;;;;;;0.07;100.00;103420.50;5266205;28;20016;-75
2022/01/25 02:49:09;;;;;;;209.05;53.10;;;;;;;0.22;100.00;103406.94;5266326;28;20036;-74
2022/01/25 02:51:45;;;;;;;191.70;53.03;;;;;;;0.31;100.00;103405.88;5266311;28;20024;-74
2022/01/25 02:54:16;;;;;;;186.10;48.45;;;;;;;0.37;100.00;103405.69;5265979;28;20035;-73
2022/01/25 02:56:48;;;;;;;177.73;51.13;;;;;;;0.46;100.00;103408.13;5265768;28;20077;-74
2022/01/25 02:59:19;;;;;;;158.13;47.35;;;;;;;0.50;100.00;103391.25;5265759;28;20032;-73
2022/01/25 03:01:50;;;;;;;161.63;48.17;;;;;;;0.56;100.00;103398.19;5265784;28;20020;-74
2022/01/25 03:04:23;;;;;;;167.27;47.55;;;;;;;0.63;100.00;103407.69;5265487;28;20067;-74
2022/01/25 03:06:53;;;;;;;151.80;45.38;;;;;;;0.66;100.00;103408.47;5265682;28;20027;-73
2022/01/25 03:09:24;;;;;;;155.85;45.42;;;;;;;0.73;100.00;103406.53;5265169;28;20028;-73
2022/01/25 03:11:56;;;;;;;144.02;45.13;;;;;;;0.81;100.00;103403.72;5265535;28;20443;-73
2022/01/25 03:14:31;;;;;;;149.80;46.20;;;;;;;0.81;100.00;103396.63;5265449;28;20070;-75
2022/01/25 03:22:34;;;;;;;153.07;46.28;;;;;;;0.75;100.00;103388.84;5265123;28;20073;-73
2022/01/25 03:25:05;;;;;;;145.30;45.50;;;;;;;0.75;100.00;103394.13;5253918;28;20103;-72
2022/01/25 03:27:35;;;;;;;152.43;46.72;;;;;;;0.71;100.00;103385.44;5265280;28;20023;-73
2022/01/25 03:30:06;;;;;;;135.50;44.72;;;;;;;0.71;100.00;103385.44;5265529;28;20081;-74
2022/01/25 03:32:37;;;;;;;137.52;44.08;;;;;;;0.69;100.00;103387.25;5265064;28;20447;-73
2022/01/25 03:35:08;;;;;;;138.27;46.08;;;;;;;0.65;100.00;103382.97;5265416;28;20032;-73
2022/01/25 03:37:39;;;;;;;144.90;43.70;;;;;;;0.61;100.00;103386.59;5265431;28;20085;-73
2022/01/25 03:40:10;;;;;;;140.18;42.95;;;;;;;0.59;100.00;103383.09;5264893;28;20016;-74
2022/01/25 03:42:41;;;;;;;148.15;46.33;;;;;;;0.59;100.00;103385.75;5264947;28;20043;-74
2022/01/25 03:45:20;;;;;;;150.73;44.85;;;;;;;0.57;100.00;103371.72;5264843;28;20035;-74
2022/01/25 03:50:43;;;;;;;141.30;43.38;;;;;;;0.60;100.00;103376.91;5264816;28;20028;-73
2022/01/25 03:53:16;;;;;;;143.10;45.58;;;;;;;0.61;100.00;103377.81;5264439;28;20107;-73
2022/01/25 03:55:48;;;;;;;151.90;44.63;;;;;;;0.62;100.00;103379.53;5264638;28;20129;-74
2022/01/25 03:58:20;;;;;;;146.95;43.58;;;;;;;0.63;100.00;103376.84;5264795;28;20024;-75
2022/01/25 04:00:50;;;;;;;150.50;45.30;;;;;;;0.61;100.00;103383.97;5264776;28;20437;-75
2022/01/25 04:03:30;;;;;;;144.30;43.90;;;;;;;0.61;100.00;103378.66;5264582;28;20032;-73
2022/01/25 04:06:02;;;;;;;144.65;44.05;;;;;;;0.61;100.00;103383.97;5264080;28;20523;-74
2022/01/25 04:08:34;;;;;;;143.60;45.67;;;;;;;0.62;100.00;103385.69;5264991;28;20426;-74
2022/01/25 04:11:04;;;;;;;150.25;45.45;;;;;;;0.62;100.00;103380.41;5264188;28;20114;-73
2022/01/25 04:13:35;;;;;;;142.25;43.83;;;;;;;0.64;100.00;103378.56;5264714;28;20439;-75
2022/01/25 04:16:13;;;;;;;149.10;45.47;;;;;;;0.67;100.00;103385.56;5264216;28;20024;-73
2022/01/25 04:27:06;;;;;;;145.82;45.30;;;;;;;0.77;100.00;103382.63;5264489;28;20381;-75
2022/01/25 04:29:36;;;;;;;150.70;45.28;;;;;;;0.77;100.00;103374.72;5264060;28;20024;-75
2022/01/25 04:32:10;;;;;;;141.45;44.10;;;;;;;0.80;100.00;103373.75;5263893;28;20099;-74
2022/01/25 04:34:57;;;;;;;140.90;43.70;;;;;;;0.80;100.00;103378.16;5262470;28;20030;-74
2022/01/25 04:51:45;;;;;;;126.90;41.03;;;;;;;0.73;100.00;103367.75;5263331;28;20058;-73
2022/01/25 04:54:30;;;;;;;138.77;42.78;;;;;;;0.75;100.00;103365.97;5263585;28;20032;-74
2022/01/25 04:59:53;;;;;;;138.93;43.03;;;;;;;0.78;100.00;103372.94;5263474;28;20024;-75
2022/01/25 05:05:16;;;;;;;135.70;42.80;;;;;;;0.80;100.00;103371.09;5263157;28;20103;-74
2022/01/25 05:10:45;;;;;;;147.20;45.40;;;;;;;0.84;100.00;103374.53;5263162;28;20024;-74
2022/01/25 05:13:38;;;;;;;145.80;43.83;;;;;;;0.86;100.00;103367.44;5263485;28;20050;-73
2022/01/25 05:16:26;;;;;;;125.63;40.15;;;;;;;0.88;100.00;103360.34;5262989;28;20040;-75
2022/01/25 05:24:42;;;;;;;127.88;39.47;;;;;;;0.89;100.00;103351.47;5262033;28;20493;-73
2022/01/25 05:27:14;;;;;;;133.20;40.85;;;;;;;0.88;100.00;103352.41;5263150;28;20107;-74
2022/01/25 05:29:45;;;;;;;126.90;41.55;;;;;;;0.88;100.00;103345.34;5263418;28;20035;-73
2022/01/25 05:32:16;;;;;;;118.75;39.35;;;;;;;0.89;100.00;103344.41;5263141;28;20397;-74
2022/01/25 05:34:47;;;;;;;135.02;38.95;;;;;;;0.89;100.00;103352.34;5267129;28;20118;-74
2022/01/25 05:37:18;;;;;;;117.97;39.80;;;;;;;0.91;100.00;103349.69;5267431;28;20157;-72
2022/01/25 05:39:49;;;;;;;109.07;36.80;;;;;;;0.91;100.00;103339.97;5267834;28;20016;-73
2022/01/25 05:42:41;;;;;;;129.77;41.30;;;;;;;0.92;100.00;103348.78;5267382;28;20473;-74
2022/01/25 05:45:18;;;;;;;130.20;42.20;;;;;;;0.95;100.00;103351.31;5267168;28;20027;-74
2022/01/25 05:47:49;;;;;;;117.70;39.72;;;;;;;0.96;100.00;103339.84;5267305;28;20425;-74
2022/01/25 05:50:19;;;;;;;119.22;38.92;;;;;;;0.95;100.00;103346.88;5267050;28;20028;-73
2022/01/25 05:52:50;;;;;;;123.15;39.95;;;;;;;0.95;100.00;103346.88;5267444;28;20020;-74
2022/01/25 05:55:21;;;;;;;119.95;38.33;;;;;;;0.98;100.00;103343.31;5266830;28;20027;-74
2022/01/25 05:57:51;;;;;;;126.28;37.92;;;;;;;0.98;100.00;103341.53;5267270;28;20536;-74
2022/01/25 06:00:22;;;;;;;119.47;38.90;;;;;;;0.97;100.00;103338.94;5266860;28;20149;-74
2022/01/25 06:02:55;;;;;;;128.07;40.90;;;;;;;0.97;100.00;103341.56;5266923;28;20012;-74
2022/01/25 06:05:25;;;;;;;132.48;40.95;;;;;;;0.97;100.00;103337.16;5266404;28;20115;-76
2022/01/25 06:07:56;;;;;;;123.93;38.13;;;;;;;0.95;100.00;103335.44;5265623;28;20119;-76
2022/01/25 06:10:26;;;;;;;144.27;44.70;;;;;;;0.92;100.00;103339.06;5267091;28;20028;-76
2022/01/25 06:12:57;;;;;;;136.65;43.05;;;;;;;0.93;100.00;103342.56;5267342;28;20405;-75
2022/01/25 06:15:28;;;;;;;129.10;40.17;;;;;;;0.94;100.00;103336.38;5267090;28;20450;-74
2022/01/25 06:17:59;;;;;;;129.35;39.55;;;;;;;0.93;100.00;103334.63;5266608;28;20020;-74
2022/01/25 06:20:29;;;;;;;131.13;41.72;;;;;;;0.95;100.00;103340.72;5266575;28;20024;-74
2022/01/25 06:23:00;;;;;;;129.77;39.53;;;;;;;0.95;100.00;103335.44;5266520;28;20012;-74
2022/01/25 06:25:30;;;;;;;122.63;39.22;;;;;;;0.96;100.00;103334.56;5266075;28;20118;-75
2022/01/25 06:28:01;;;;;;;138.70;44.15;;;;;;;0.98;100.00;103335.38;5266880;28;20039;-75
2022/01/25 06:30:31;;;;;;;146.88;45.03;;;;;;;0.98;100.00;103333.59;5248327;28;20035;-74
2022/01/25 06:33:02;;;;;;;152.32;45.28;;;;;;;1.00;100.00;103345.00;5265560;28;20326;-75
2022/01/25 06:35:34;;;;;;;138.55;43.78;;;;;;;1.02;100.00;103345.81;5266366;28;20024;-75
2022/01/25 06:38:04;;;;;;;122.47;39.33;;;;;;;1.04;100.00;103351.06;5265462;28;20470;-75
2022/01/25 06:40:35;;;;;;;145.05;46.88;;;;;;;1.07;100.00;103345.69;5264632;28;20115;-75
2022/01/25 06:43:06;;;;;;;145.77;44.70;;;;;;;1.07;100.00;103348.34;5266257;28;20064;-76
2022/01/25 06:45:40;;;;;;;149.23;43.88;;;;;;;1.08;100.00;103357.13;5265162;28;20491;-75
2022/01/25 06:48:11;;;;;;;134.30;43.83;;;;;;;1.09;100.00;103361.50;5265785;28;20024;-72
2022/01/25 06:50:41;;;;;;;154.20;45.88;;;;;;;1.12;100.00;103362.28;5266133;28;20436;-74
2022/01/25 06:53:12;;;;;;;150.60;45.75;;;;;;;1.14;100.00;103360.47;5265923;28;20088;-74
2022/01/25 06:55:42;;;;;;;143.82;45.25;;;;;;;1.15;100.00;103366.59;5265627;28;20080;-75
2022/01/25 06:58:13;;;;;;;139.02;46.08;;;;;;;1.14;100.00;103365.75;5265845;28;20077;-75
2022/01/25 07:00:44;;;;;;;124.75;39.63;;;;;;;1.12;100.00;103364.06;5263970;28;20086;-76
2022/01/25 07:03:14;;;;;;;136.35;41.88;;;;;;;1.14;100.00;103362.25;5265959;28;20016;-75
2022/01/25 07:05:45;;;;;;;138.43;43.95;;;;;;;1.13;100.00;103361.38;5265429;28;20069;-74
2022/01/25 07:08:15;;;;;;;132.60;41.05;;;;;;;1.13;100.00;103357.88;5265721;28;20065;-73
2022/01/25 07:10:46;;;;;;;121.65;41.00;;;;;;;1.12;100.00;103370.22;5266250;28;20043;-73
2022/01/25 07:13:16;;;;;;;136.55;42.97;;;;;;;1.13;100.00;103374.59;5264009;28;20024;-73
2022/01/25 07:15:47;;;;;;;131.32;42.10;;;;;;;1.12;100.00;103380.78;5265364;28;20078;-73
2022/01/25 07:18:18;;;;;;;122.65;39.35;;;;;;;1.11;100.00;103381.72;5265677;28;20028;-73
2022/01/25 07:20:49;;;;;;;132.55;43.05;;;;;;;1.13;100.00;103381.66;5265135;28;20031;-73
2022/01/25 07:23:19;;;;;;;136.40;41.55;;;;;;;1.14;100.00;103378.97;5265382;28;20020;-73
2022/01/25 07:25:50;;;;;;;142.45;43.15;;;;;;;1.14;100.00;103383.38;5264780;28;20036;-73
2022/01/25 07:28:21;;;;;;;137.20;44.47;;;;;;;1.16;100.00;103381.59;5259763;28;20023;-74
2022/01/25 07:30:51;;;;;;;140.55;42.70;;;;;;;1.18;100.00;103380.63;5248738;28;20328;-73
2022/01/25 07:33:22;;;;;;;123.57;41.80;;;;;;;1.21;100.00;103385.81;5256145;28;20028;-73
2022/01/25 07:35:52;;;;;;;141.00;41.33;;;;;;;1.22;100.00;103373.47;5258829;28;20016;-73
2022/01/25 07:38:23;;;;;;;137.13;43.60;;;;;;;1.23;100.00;103370.78;5262448;28;20473;-73
2022/01/25 07:40:54;;;;;;;143.70;42.42;;;;;;;1.25;100.00;103376.00;5262011;28;20103;-73
2022/01/25 07:43:24;;;;;;;136.18;43.08;;;;;;;1.26;100.00;103373.34;5262269;28;20020;-73
2022/01/25 07:45:57;;;;;;;139.32;42.88;;;;;;;1.25;100.00;103366.28;5261649;28;20024;-73
2022/01/25 07:48:27;;;;;;;142.23;43.25;;;;;;;1.27;100.00;103363.63;5261945;28;20281;-73
2022/01/25 07:50:58;;;;;;;151.80;46.00;;;;;;;1.31;100.00;103369.69;5261997;28;20232;-74
2022/01/25 07:53:28;;;;;;;137.35;43.50;;;;;;;1.32;100.00;103371.44;5261235;28;20032;-73
2022/01/25 07:55:59;;;;;;;145.00;41.40;;;;;;;1.31;100.00;103370.56;5261230;28;20016;-74
2022/01/25 07:58:29;;;;;;;133.10;43.20;;;;;;;1.30;100.00;103374.09;5261834;28;20036;-73
2022/01/25 08:01:00;;;;;;;149.07;42.45;;;;;;;1.34;100.00;103375.75;5261904;28;20305;-74
2022/01/25 08:03:31;;;;;;;134.80;43.60;;;;;;;1.33;100.00;103378.44;5261994;28;20119;-73
2022/01/25 08:06:02;;;;;;;143.48;45.65;;;;;;;1.33;100.00;103376.66;5261571;28;20032;-72
2022/01/25 08:08:33;;;;;;;141.93;45.28;;;;;;;1.35;100.00;103384.53;5248233;28;20036;-73
2022/01/25 08:11:04;;;;;;;150.05;44.55;;;;;;;1.33;100.00;103379.31;5261842;28;20031;-73
2022/01/25 08:13:38;;;;;;;145.80;44.53;;;;;;;1.32;100.00;103382.88;5262030;28;20044;-73
2022/01/25 08:16:08;;;;;;;145.48;46.72;;;;;;;1.36;100.00;103384.53;5261533;28;20348;-73
2022/01/25 08:18:39;;;;;;;151.55;47.58;;;;;;;1.37;100.00;103377.44;5261593;28;20039;-73
2022/01/25 08:21:10;;;;;;;147.00;47.50;;;;;;;1.40;100.00;103380.84;5261005;28;20024;-73
2022/01/25 08:23:40;;;;;;;172.15;51.33;;;;;;;1.48;100.00;103391.22;5261614;28;20028;-73
2022/01/25 08:26:11;;;;;;;161.48;50.33;;;;;;;1.49;100.00;103385.00;5260598;28;20038;-73
2022/01/25 08:28:41;;;;;;;161.32;49.80;;;;;;;1.50;100.00;103397.31;5261216;28;20013;-73
2022/01/25 08:31:12;;;;;;;161.05;50.83;;;;;;;1.54;100.00;103397.19;5261056;28;20030;-73
2022/01/25 08:33:42;;;;;;;162.25;49.30;;;;;;;1.58;100.00;103405.03;5260275;28;20024;-73
2022/01/25 08:36:13;;;;;;;141.52;47.80;;;;;;;1.62;100.00;103406.69;5261131;28;20039;-73
2022/01/25 08:38:44;;;;;;;167.10;51.25;;;;;;;1.66;100.00;103403.91;5260631;28;20026;-73
2022/01/25 08:41:15;;;;;;;166.25;50.10;;;;;;;1.68;100.00;103412.66;5261903;28;20052;-74
2022/01/25 08:43:46;;;;;;;156.48;49.20;;;;;;;1.70;100.00;103405.53;5260852;28;20019;-73
2022/01/25 08:46:17;;;;;;;140.27;46.20;;;;;;;1.73;100.00;103405.44;5261014;28;20028;-73
2022/01/25 08:48:47;;;;;;;157.15;48.30;;;;;;;1.78;100.00;103398.22;5261178;28;20549;-73
2022/01/25 08:51:18;;;;;;;167.30;50.78;;;;;;;1.81;100.00;103392.84;5260954;28;20119;-73
2022/01/25 08:53:49;;;;;;;166.05;52.40;;;;;;;1.85;100.00;103393.59;5260966;28;20028;-73
2022/01/25 08:56:20;;;;;;;163.43;52.47;;;;;;;1.87;100.00;103396.22;5261545;28;20049;-74
2022/01/25 08:58:50;;;;;;;164.38;53.45;;;;;;;1.88;100.00;103392.66;5260878;28;20020;-73
2022/01/25 09:01:21;;;;;;;147.55;49.88;;;;;;;1.83;100.00;103390.16;5261185;28;20031;-72
2022/01/25 09:03:54;;;;;;;138.13;44.28;;;;;;;1.85;100.00;103396.25;5261488;28;20020;-73
2022/01/25 09:06:25;;;;;;;132.65;44.35;;;;;;;1.90;100.00;103390.81;5260762;28;20042;-73
2022/01/25 09:09:14;;;;;;;133.40;45.28;;;;;;;1.93;100.00;103390.72;5261381;28;20032;-71
2022/01/25 09:11:45;;;;;;;138.02;43.00;;;;;;;1.98;100.00;103396.75;5260282;28;20028;-73
2022/01/25 09:14:16;;;;;;;134.95;43.58;;;;;;;2.00;100.00;103401.06;5260116;28;20032;-73
2022/01/25 09:16:46;;;;;;;149.07;46.38;;;;;;;2.04;100.00;103404.50;5261316;28;20111;-71
2022/01/25 09:19:17;;;;;;;145.60;47.33;;;;;;;2.09;100.00;103399.91;5260708;28;20047;-71
2022/01/25 09:21:47;;;;;;;128.13;43.83;;;;;;;2.10;100.00;103406.06;5260918;28;20217;-71
2022/01/25 09:24:18;;;;;;;135.13;44.95;;;;;;;2.08;100.00;103411.44;5259174;28;20020;-71
2022/01/25 09:26:48;;;;;;;140.10;45.80;;;;;;;2.08;100.00;103409.66;5260733;28;20056;-73
2022/01/25 09:29:19;;;;;;;139.60;45.40;;;;;;;2.04;100.00;103409.78;5259607;28;20346;-73
2022/01/25 09:31:50;;;;;;;139.32;44.38;;;;;;;2.11;100.00;103405.16;5261197;28;20461;-73
2022/01/25 09:34:23;;;;;;;131.85;42.60;;;;;;;2.10;100.00;103409.59;5260862;28;20073;-73
2022/01/25 09:36:54;;;;;;;136.98;44.13;;;;;;;2.18;100.00;103402.28;5261406;28;20092;-73
2022/01/25 09:39:24;;;;;;;130.57;43.50;;;;;;;2.22;100.00;103403.91;5261303;28;20473;-73
2022/01/25 09:41:55;;;;;;;133.88;45.72;;;;;;;2.25;100.00;103402.94;5261355;28;20483;-74
2022/01/25 09:44:26;;;;;;;136.80;46.63;;;;;;;2.27;100.00;103414.34;5260873;28;20023;-74
2022/01/25 09:46:57;;;;;;;158.43;49.83;;;;;;;2.29;100.00;103416.03;5259468;28;20367;-74
2022/01/25 09:49:28;;;;;;;141.88;47.20;;;;;;;2.28;100.00;103421.38;5260902;28;20020;-74
2022/01/25 09:52:01;;;;;;;137.05;49.78;;;;;;;2.29;100.00;103418.69;5260743;28;20026;-72
2022/01/25 09:54:33;;;;;;;151.73;52.95;;;;;;;2.33;100.00;103422.97;5260414;28;20050;-73
2022/01/25 09:57:05;;;;;;;161.38;57.65;;;;;;;2.47;100.00;103419.00;5260193;28;20152;-71
2022/01/25 09:59:36;;;;;;;147.68;49.55;;;;;;;2.44;100.00;103421.75;5260991;28;20020;-71
2022/01/25 10:02:08;;;;;;;128.98;42.88;;;;;;;2.49;100.00;103425.97;5260356;28;20050;-72
2022/01/25 10:04:41;;;;;;;141.40;44.67;;;;;;;2.54;100.00;103428.47;5258089;28;20397;-74
2022/01/25 10:07:12;;;;;;;131.30;44.40;;;;;;;2.51;100.00;103425.91;5265020;28;20024;-73
2022/01/25 10:09:43;;;;;;;134.40;43.10;;;;;;;2.54;100.00;103431.97;5260597;28;20031;-73
2022/01/25 10:12:29;;;;;;;126.78;42.80;;;;;;;2.54;100.00;103437.28;5261092;28;20024;-71
2022/01/25 10:14:59;;;;;;;124.53;42.80;;;;;;;2.62;100.00;103423.78;5260684;28;20031;-73
2022/01/25 10:17:32;;;;;;;121.75;41.83;;;;;;;2.71;100.00;103423.47;5261194;28;20031;-74
2022/01/25 10:20:04;;;;;;;133.02;41.83;;;;;;;2.82;100.00;103429.28;5261566;28;20418;-73
2022/01/25 10:22:42;;;;;;;129.52;43.55;;;;;;;2.88;100.00;103420.22;5264698;28;20487;-73
2022/01/25 10:25:43;;;;;;;127.90;43.60;;;;;;;2.87;100.00;103425.59;5264879;28;20024;-73
2022/01/25 10:28:20;;;;;;;117.90;40.58;;;;;;;2.92;100.00;103427.16;5253364;28;20079;-73
2022/01/25 10:30:53;;;;;;;113.85;39.22;;;;;;;2.92;100.00;103419.22;5265167;28;20024;-71
2022/01/25 10:33:27;;;;;;;118.40;41.72;;;;;;;2.98;100.00;103426.09;5264329;28;20111;-72
2022/01/25 10:36:01;;;;;;;120.20;39.38;;;;;;;3.06;100.00;103416.94;5264704;28;20032;-72
2022/01/25 10:38:32;;;;;;;107.22;38.90;;;;;;;3.01;100.00;103420.66;5264757;28;20020;-72
2022/01/25 10:41:07;;;;;;;107.05;37.63;;;;;;;3.07;100.00;103417.81;5262586;28;20031;-73
2022/01/25 10:43:39;;;;;;;119.32;40.35;;;;;;;3.15;100.00;103423.69;5263986;28;20055;-73
2022/01/25 10:46:30;;;;;;;112.38;40.58;;;;;;;3.20;100.00;103419.06;5265869;28;20063;-73
2022/01/25 10:49:04;;;;;;;105.60;37.53;;;;;;;3.21;100.00;103414.63;5268383;28;20130;-73
2022/01/25 10:51:55;;;;;;;102.50;37.22;;;;;;;3.24;100.00;103423.34;5264066;28;20422;-73
2022/01/25 10:54:26;;;;;;;116.35;39.45;;;;;;;3.27;100.00;103417.94;5263325;28;20085;-72
2022/01/25 10:56:57;;;;;;;103.43;36.35;;;;;;;3.29;100.00;103424.06;5260783;28;20020;-72
2022/01/25 10:59:33;;;;;;;99.65;36.17;;;;;;;3.24;100.00;103411.88;5263389;28;20024;-72
2022/01/25 11:02:06;;;;;;;98.15;36.13;;;;;;;3.24;100.00;103412.75;5260286;28;20027;-72
2022/01/25 11:04:39;;;;;;;104.97;36.15;;;;;;;3.29;100.00;103416.09;5262917;28;20462;-72
2022/01/25 11:07:11;;;;;;;104.88;35.90;;;;;;;3.30;100.00;103412.50;5262249;28;20056;-72
2022/01/25 11:09:46;;;;;;;98.78;37.47;;;;;;;3.30;100.00;103406.34;5263322;28;20455;-72
2022/01/25 11:12:19;;;;;;;91.63;32.92;;;;;;;3.20;100.00;103404.94;5263608;28;20024;-72
2022/01/25 11:14:51;;;;;;;94.47;35.00;;;;;;;3.26;100.00;103399.41;5263342;28;20028;-72
2022/01/25 11:17:24;;;;;;;96.70;33.75;;;;;;;3.21;100.00;103399.56;5263588;28;20058;-72
2022/01/25 11:19:56;;;;;;;97.85;36.15;;;;;;;3.18;100.00;103396.19;5296692;27;20031;-71
2022/01/25 11:22:27;;;;;;;100.82;36.55;;;;;;;3.21;100.00;103398.72;5264333;28;20016;-72
2022/01/25 11:25:17;;;;;;;93.72;33.90;;;;;;;3.27;100.00;103407.34;5264709;28;20024;-72
2022/01/25 11:27:50;;;;;;;92.72;33.67;;;;;;;3.32;100.00;103405.38;5264261;28;20019;-73
2022/01/25 11:30:20;;;;;;;106.22;37.63;;;;;;;3.38;100.00;103407.78;5264250;28;20228;-73
2022/01/25 11:32:53;;;;;;;102.38;35.83;;;;;;;3.44;100.00;103403.19;5277737;28;20024;-71
2022/01/25 11:35:26;;;;;;;94.65;34.22;;;;;;;3.37;100.00;103394.59;5263695;28;20024;-72
2022/01/25 11:37:57;;;;;;;99.28;34.63;;;;;;;3.46;100.00;103403.97;5263782;28;20481;-72
2022/01/25 11:40:45;;;;;;;100.28;34.47;;;;;;;3.50;100.00;103394.97;5263899;28;20035;-73
2022/01/25 11:43:16;;;;;;;92.35;34.65;;;;;;;3.58;100.00;103396.44;5264044;28;20016;-72
2022/01/25 11:45:49;;;;;;;98.18;35.00;;;;;;;3.59;100.00;103390.19;5263460;28;20062;-72
2022/01/25 11:48:53;;;;;;;94.95;35.65;;;;;;;3.52;100.00;103401.13;5263399;28;20548;-72
2022/01/25 11:51:24;;;;;;;98.93;34.92;;;;;;;3.45;100.00;103397.81;5263650;28;20028;-73
2022/01/25 11:53:54;;;;;;;99.18;35.90;;;;;;;3.46;100.00;103398.66;5263865;28;20035;-73
2022/01/25 11:56:25;;;;;;;106.53;36.20;;;;;;;3.49;100.00;103399.44;5263275;28;20030;-73
2022/01/25 11:58:58;;;;;;;96.18;35.60;;;;;;;3.49;100.00;103406.53;5263276;28;20028;-72
2022/01/25 12:01:29;;;;;;;90.03;32.97;;;;;;;3.53;100.00;103400.19;5263552;28;20077;-73
2022/01/25 12:04:03;;;;;;;98.10;35.10;;;;;;;3.53;100.00;103397.53;5263564;28;20024;-72
2022/01/25 12:06:59;;;;;;;97.63;34.72;;;;;;;3.59;100.00;103395.50;5263115;28;20019;-73
2022/01/25 12:09:49;;;;;;;104.97;36.97;;;;;;;3.64;100.00;103398.84;5262973;28;20117;-73
2022/01/25 12:12:22;;;;;;;119.57;39.78;;;;;;;3.69;100.00;103397.81;5263471;28;20024;-73
2022/01/25 12:14:55;;;;;;;103.35;36.38;;;;;;;3.72;100.00;103387.94;5263370;28;20032;-73
2022/01/25 12:17:32;;;;;;;100.90;37.35;;;;;;;3.73;100.00;103386.16;5262044;28;20213;-73
2022/01/25 12:20:18;;;;;;;114.13;39.22;;;;;;;3.70;100.00;103391.56;5263589;28;20031;-73
2022/01/25 12:23:05;;;;;;;101.45;36.85;;;;;;;3.70;100.00;103381.81;5263022;28;20035;-72
2022/01/25 12:25:55;;;;;;;105.15;37.63;;;;;;;3.72;100.00;103382.63;5263144;28;20508;-71
2022/01/25 12:28:30;;;;;;;122.53;40.38;;;;;;;3.73;100.00;103381.69;5263479;28;20028;-72
2022/01/25 12:31:01;;;;;;;102.82;36.30;;;;;;;3.69;100.00;103376.56;5263354;28;20012;-71
2022/01/25 12:33:33;;;;;;;110.80;39.08;;;;;;;3.70;100.00;103379.16;5263060;28;20089;-72
2022/01/25 12:36:08;;;;;;;105.78;36.80;;;;;;;3.72;100.00;103379.97;5262487;28;20038;-71
2022/01/25 12:38:39;;;;;;;106.80;37.55;;;;;;;3.71;100.00;103382.66;5263077;28;20073;-71
2022/01/25 12:41:31;;;;;;;115.97;38.95;;;;;;;3.72;100.00;103373.81;5263237;28;20028;-72
2022/01/25 12:44:05;;;;;;;113.15;39.45;;;;;;;3.72;100.00;103371.16;5263072;28;20102;-72
2022/01/25 12:46:40;;;;;;;107.70;39.10;;;;;;;3.74;100.00;103370.16;5263130;28;20243;-71
2022/01/25 12:49:16;;;;;;;118.17;38.67;;;;;;;3.73;100.00;103378.19;5250025;28;20362;-71
2022/01/25 12:51:51;;;;;;;116.65;39.08;;;;;;;3.74;100.00;103383.41;5262952;28;20274;-71
2022/01/25 12:54:25;;;;;;;113.40;38.40;;;;;;;3.78;100.00;103374.41;5262748;28;20161;-72
2022/01/25 12:56:57;;;;;;;119.00;38.97;;;;;;;3.79;100.00;103377.94;5262974;28;20031;-71
2022/01/25 12:59:33;;;;;;;113.13;38.20;;;;;;;3.73;100.00;103373.72;5261573;28;20051;-72
2022/01/25 13:02:04;;;;;;;108.60;39.13;;;;;;;3.73;100.00;103362.25;5263420;28;20466;-72
2022/01/25 13:04:34;;;;;;;116.38;40.15;;;;;;;3.76;100.00;103360.31;5262877;28;20035;-72
2022/01/25 13:07:05;;;;;;;123.05;42.63;;;;;;;3.76;100.00;103362.97;5263678;28;20050;-72
2022/01/25 13:09:42;;;;;;;107.43;36.55;;;;;;;3.78;100.00;103358.47;5262988;28;20055;-71
2022/01/25 13:12:17;;;;;;;106.43;35.70;;;;;;;3.81;100.00;103357.47;5263416;28;20114;-72
2022/01/25 13:14:51;;;;;;;107.20;37.93;;;;;;;3.80;100.00;103348.66;5263291;28;20036;-72